createdAt,value
2019-02-21T00:02:03.924Z,101175.29
2019-02-21T00:04:12.067Z,101183.41
2019-02-21T00:06:19.881Z,101178.41
2019-02-21T00:08:27.576Z,101179.95
2019-02-21T00:10:35.316Z,101184.41
2019-02-21T00:12:43.016Z,101190.10
2019-02-21T00:14:50.649Z,101189.06
2019-02-21T00:16:58.912Z,101187.33
2019-02-21T00:19:06.817Z,101184.02
2019-02-21T00:21:14.647Z,101194.09
2019-02-21T00:23:22.438Z,101189.95
2019-02-21T00:25:30.821Z,101188.17
2019-02-21T00:27:38.694Z,101192.19
2019-02-21T00:29:46.454Z,101185.38
2019-02-21T00:31:54.148Z,101190.77
2019-02-21T00:34:01.781Z,101192.54
2019-02-21T00:36:09.585Z,101192.08
2019-02-21T00:38:17.137Z,101193.15
2019-02-21T00:40:24.909Z,101188.45
2019-02-21T00:42:32.646Z,101189.44
2019-02-21T00:44:40.316Z,101195.20
2019-02-21T00:46:48.058Z,101193.07
2019-02-21T00:48:55.737Z,101196.59
2019-02-21T00:51:03.430Z,101204.64
2019-02-21T00:53:11.390Z,101199.80
2019-02-21T00:55:19.197Z,101197.88
2019-02-21T00:57:27.480Z,101200.11
2019-02-21T00:59:35.366Z,101195.42
2019-02-21T01:01:43.156Z,101200.88
2019-02-21T01:03:50.778Z,101196.43
2019-02-21T01:05:58.608Z,101210.42
2019-02-21T01:08:07.059Z,101219.15
2019-02-21T01:10:14.643Z,101210.16
2019-02-21T01:12:22.644Z,101211.78
2019-02-21T01:14:30.602Z,101202.59
2019-02-21T01:16:38.320Z,101199.98
2019-02-21T01:18:45.821Z,101206.80
2019-02-21T01:20:53.599Z,101200.11
2019-02-21T01:23:01.278Z,101196.37
2019-02-21T01:25:09.245Z,101202.06
2019-02-21T01:27:17.109Z,101198.60
2019-02-21T01:29:24.923Z,101195.82
2019-02-21T01:31:32.584Z,101189.44
2019-02-21T01:33:40.324Z,101191.96
2019-02-21T01:35:48.072Z,101185.75
2019-02-21T01:37:56.202Z,101191.45
2019-02-21T01:40:03.958Z,101191.44
2019-02-21T01:42:11.663Z,101203.72
2019-02-21T01:44:19.539Z,101197.50
2019-02-21T01:46:27.252Z,101193.20
2019-02-21T01:48:34.688Z,101191.54
2019-02-21T01:50:42.360Z,101186.13
2019-02-21T01:52:50.018Z,101192.08
2019-02-21T01:54:57.889Z,101177.52
2019-02-21T01:57:05.614Z,101186.77
2019-02-21T01:59:13.322Z,101180.76
2019-02-21T02:01:21.178Z,101182.76
2019-02-21T02:03:29.084Z,101187.05
2019-02-21T02:05:37.030Z,101187.45
2019-02-21T02:07:44.991Z,101185.89
2019-02-21T02:09:52.523Z,101185.84
2019-02-21T02:11:59.985Z,101187.69
2019-02-21T02:14:07.802Z,101182.06
2019-02-21T02:16:15.496Z,101171.64
2019-02-21T02:18:23.363Z,101177.47
2019-02-21T02:20:31.339Z,101169.41
2019-02-21T02:22:39.156Z,101170.14
2019-02-21T02:24:46.796Z,101165.94
2019-02-21T02:26:54.561Z,101166.24
2019-02-21T02:29:02.311Z,101173.77
2019-02-21T02:31:22.026Z,101172.94
2019-02-21T02:33:19.676Z,101181.69
2019-02-21T02:35:27.309Z,101179.93
2019-02-21T02:37:35.055Z,101182.37
2019-02-21T02:39:42.659Z,101170.48
2019-02-21T02:41:50.334Z,101171.84
2019-02-21T02:43:57.759Z,101174.05
2019-02-21T02:46:05.611Z,101178.00
2019-02-21T02:48:13.352Z,101175.98
2019-02-21T02:50:21.087Z,101174.52
2019-02-21T02:52:28.685Z,101182.44
2019-02-21T02:54:37.037Z,101188.45
2019-02-21T02:56:44.824Z,101184.38
2019-02-21T02:58:52.543Z,101191.50
2019-02-21T03:01:00.127Z,101188.05
2019-02-21T03:03:07.653Z,101183.51
2019-02-21T03:05:15.325Z,101185.30
2019-02-21T03:07:22.891Z,101183.08
2019-02-21T03:09:30.814Z,101181.36
2019-02-21T03:11:38.589Z,101181.30
2019-02-21T03:13:46.353Z,101175.28
2019-02-21T03:15:54.055Z,101177.84
2019-02-21T03:18:01.961Z,101178.75
2019-02-21T03:20:10.531Z,101173.98
2019-02-21T03:22:18.316Z,101171.69
2019-02-21T03:24:26.140Z,101182.11
2019-02-21T03:26:33.923Z,101175.59
2019-02-21T03:28:41.626Z,101175.53
2019-02-21T03:30:49.406Z,101180.73
2019-02-21T03:32:57.050Z,101182.89
2019-02-21T03:35:05.028Z,101181.27
2019-02-21T03:37:12.779Z,101172.98
2019-02-21T03:39:20.473Z,101174.98
2019-02-21T03:41:28.091Z,101173.64
2019-02-21T03:43:35.983Z,101174.64
2019-02-21T03:45:43.723Z,101170.19
2019-02-21T03:47:51.350Z,101173.20
2019-02-21T03:49:59.216Z,101180.58
2019-02-21T03:52:06.929Z,101173.67
2019-02-21T03:54:14.731Z,101169.76
2019-02-21T03:56:22.586Z,101171.97
2019-02-21T03:58:30.515Z,101172.74
2019-02-21T04:00:38.369Z,101168.42
2019-02-21T04:02:46.010Z,101166.73
2019-02-21T04:04:53.795Z,101159.27
2019-02-21T04:07:01.371Z,101157.90
2019-02-21T04:09:10.986Z,101155.81
2019-02-21T04:11:18.595Z,101155.80
2019-02-21T04:13:26.357Z,101154.96
2019-02-21T04:15:34.035Z,101155.28
2019-02-21T04:17:41.916Z,101149.69
2019-02-21T04:19:49.706Z,101147.88
2019-02-21T04:21:57.513Z,101146.14
2019-02-21T04:24:05.399Z,101153.98
2019-02-21T04:26:13.124Z,101157.06
2019-02-21T04:28:20.897Z,101157.41
2019-02-21T04:30:28.693Z,101155.38
2019-02-21T04:32:36.722Z,101151.43
2019-02-21T04:34:44.598Z,101154.45
2019-02-21T04:36:52.354Z,101157.88
2019-02-21T04:39:00.082Z,101158.73
2019-02-21T04:41:08.043Z,101156.96
2019-02-21T04:43:16.088Z,101154.43
2019-02-21T04:45:23.919Z,101158.70
2019-02-21T04:47:31.656Z,101156.58
2019-02-21T04:49:39.431Z,101144.46
2019-02-21T04:51:47.381Z,101152.73
2019-02-21T04:53:55.146Z,101147.44
2019-02-21T04:56:03.000Z,101147.44
2019-02-21T04:58:10.921Z,101146.28
2019-02-21T05:00:19.035Z,101155.38
2019-02-21T05:02:29.530Z,101143.62
2019-02-21T05:04:37.020Z,101153.23
2019-02-21T05:06:44.934Z,101144.99
2019-02-21T05:08:52.785Z,101149.87
2019-02-21T05:11:01.031Z,101149.75
2019-02-21T05:13:09.442Z,101141.98
2019-02-21T05:15:17.372Z,101137.69
2019-02-21T05:17:25.707Z,101134.16
2019-02-21T05:19:34.233Z,101133.25
2019-02-21T05:21:42.784Z,101127.55
2019-02-21T05:23:50.946Z,101138.86
2019-02-21T05:25:58.908Z,101126.63
2019-02-21T05:28:28.898Z,101132.30
2019-02-21T05:30:36.787Z,101132.66
2019-02-21T05:33:00.360Z,101134.52
2019-02-21T05:35:31.445Z,101128.84
2019-02-21T05:37:58.440Z,101133.16
2019-02-21T05:40:24.057Z,101130.22
2019-02-21T05:42:53.816Z,101126.30
2019-02-21T05:45:18.871Z,101130.23
2019-02-21T05:47:48.800Z,101125.78
2019-02-21T05:50:28.089Z,101134.61
2019-02-21T05:52:52.542Z,101129.01
2019-02-21T05:55:18.211Z,101130.25
2019-02-21T05:57:43.692Z,101133.31
2019-02-21T06:00:09.242Z,101134.14
2019-02-21T06:02:53.170Z,101133.23
2019-02-21T06:05:10.365Z,101139.70
2019-02-21T06:07:37.162Z,101137.99
2019-02-21T06:10:00.154Z,101137.16
2019-02-21T06:12:33.705Z,101137.09
2019-02-21T06:15:04.435Z,101140.67
2019-02-21T06:17:28.719Z,101138.46
2019-02-21T06:19:43.585Z,101141.46
2019-02-21T06:22:09.683Z,101150.67
2019-02-21T06:24:21.679Z,101143.69
2019-02-21T06:26:39.542Z,101149.69
2019-02-21T06:29:06.730Z,101144.91
2019-02-21T06:31:17.951Z,101141.83
2019-02-21T06:33:28.225Z,101158.34
2019-02-21T06:35:35.383Z,101155.75
2019-02-21T06:37:43.160Z,101150.96
2019-02-21T06:39:50.901Z,101154.41
2019-02-21T06:42:00.146Z,101157.88
2019-02-21T06:44:08.043Z,101157.88
2019-02-21T06:46:15.920Z,101154.36
2019-02-21T06:48:23.773Z,101150.42
2019-02-21T06:50:31.497Z,101149.55
2019-02-21T06:52:40.684Z,101150.49
2019-02-21T06:54:48.793Z,101148.65
2019-02-21T06:56:56.506Z,101155.55
2019-02-21T06:59:04.308Z,101148.95
2019-02-21T07:01:12.131Z,101150.39
2019-02-21T07:03:19.917Z,101140.81
2019-02-21T07:05:27.980Z,101147.62
2019-02-21T07:07:35.781Z,101147.61
2019-02-21T07:09:43.544Z,101154.98
2019-02-21T07:11:51.190Z,101157.59
2019-02-21T07:13:59.157Z,101157.16
2019-02-21T07:16:07.053Z,101155.81
2019-02-21T07:18:14.875Z,101153.23
2019-02-21T07:20:22.643Z,101158.00
2019-02-21T07:22:30.419Z,101159.73
2019-02-21T07:24:38.863Z,101161.41
2019-02-21T07:26:46.499Z,101164.83
2019-02-21T07:28:54.247Z,101163.98
2019-02-21T07:31:02.068Z,101166.59
2019-02-21T07:33:09.857Z,101161.83
2019-02-21T07:35:17.535Z,101157.48
2019-02-21T07:37:25.322Z,101162.65
2019-02-21T07:39:36.127Z,101171.27
2019-02-21T07:41:42.665Z,101168.25
2019-02-21T07:43:50.338Z,101169.87
2019-02-21T07:45:58.253Z,101169.08
2019-02-21T07:48:06.296Z,101172.55
2019-02-21T07:50:14.206Z,101173.93
2019-02-21T07:52:22.090Z,101170.86
2019-02-21T07:54:29.902Z,101177.78
2019-02-21T07:56:42.021Z,101176.86
2019-02-21T07:58:47.066Z,101178.17
2019-02-21T08:00:55.057Z,101175.98
2019-02-21T08:03:03.000Z,101176.39
2019-02-21T08:05:11.085Z,101178.06
2019-02-21T08:07:18.985Z,101180.27
2019-02-21T08:09:27.978Z,101177.98
2019-02-21T08:11:36.004Z,101177.52
2019-02-21T08:13:44.428Z,101183.56
2019-02-21T08:15:52.230Z,101181.77
2019-02-21T08:18:00.110Z,101184.38
2019-02-21T08:20:09.705Z,101179.63
2019-02-21T08:22:17.410Z,101179.17
2019-02-21T08:24:25.267Z,101181.72
2019-02-21T08:26:33.014Z,101180.84
2019-02-21T08:28:40.951Z,101181.70
2019-02-21T08:30:48.876Z,101176.90
2019-02-21T08:33:21.458Z,101179.08
2019-02-21T08:35:29.495Z,101175.52
2019-02-21T08:37:37.212Z,101182.41
2019-02-21T08:39:45.104Z,101183.70
2019-02-21T08:41:55.114Z,101179.80
2019-02-21T08:44:02.617Z,101184.96
2019-02-21T08:46:10.356Z,101184.09
2019-02-21T08:48:18.201Z,101188.41
2019-02-21T08:50:26.044Z,101184.02
2019-02-21T08:52:33.911Z,101189.20
2019-02-21T08:54:41.658Z,101184.84
2019-02-21T08:56:49.782Z,101185.75
2019-02-21T08:58:57.526Z,101174.85
2019-02-21T09:01:05.455Z,101182.69
2019-02-21T09:03:13.394Z,101172.62
2019-02-21T09:05:21.365Z,101173.50
2019-02-21T09:07:29.068Z,101168.67
2019-02-21T09:09:37.006Z,101164.27
2019-02-21T09:11:44.684Z,101162.53
2019-02-21T09:13:52.341Z,101163.84
2019-02-21T09:16:00.089Z,101169.52
2019-02-21T09:18:07.903Z,101163.81
2019-02-21T09:20:16.083Z,101160.82
2019-02-21T09:22:23.759Z,101155.09
2019-02-21T09:24:39.152Z,101165.10
2019-02-21T09:26:41.238Z,101160.27
2019-02-21T09:28:49.118Z,101160.25
2019-02-21T09:30:57.088Z,101158.08
2019-02-21T09:33:04.979Z,101163.24
2019-02-21T09:35:12.973Z,101160.14
2019-02-21T09:37:20.806Z,101167.05
2019-02-21T09:39:28.773Z,101161.77
2019-02-21T09:41:36.481Z,101166.95
2019-02-21T09:43:44.269Z,101155.14
2019-02-21T09:45:52.177Z,101152.05
2019-02-21T09:47:59.914Z,101158.59
2019-02-21T09:50:08.273Z,101155.98
2019-02-21T09:52:16.139Z,101153.73
2019-02-21T09:54:24.145Z,101148.52
2019-02-21T09:56:32.084Z,101145.86
2019-02-21T09:58:39.878Z,101142.33
2019-02-21T10:00:47.592Z,101141.45
2019-02-21T10:02:56.711Z,101142.33
2019-02-21T10:05:05.683Z,101137.09
2019-02-21T10:07:13.449Z,101135.78
2019-02-21T10:09:21.193Z,101130.50
2019-02-21T10:11:29.023Z,101130.44
2019-02-21T10:13:36.751Z,101121.25
2019-02-21T10:15:46.973Z,101122.94
2019-02-21T10:17:54.358Z,101125.10
2019-02-21T10:20:04.139Z,101120.78
2019-02-21T10:22:13.521Z,101112.52
2019-02-21T10:24:21.199Z,101109.39
2019-02-21T10:26:29.063Z,101103.27
2019-02-21T10:28:36.955Z,101104.58
2019-02-21T10:30:44.769Z,101106.72
2019-02-21T10:32:52.563Z,101103.30
2019-02-21T10:35:00.365Z,101099.38
2019-02-21T10:37:08.094Z,101096.81
2019-02-21T10:39:16.039Z,101089.81
2019-02-21T10:41:23.761Z,101087.22
2019-02-21T10:43:31.520Z,101089.84
2019-02-21T10:45:47.476Z,101078.08
2019-02-21T10:47:48.607Z,101081.90
2019-02-21T10:49:56.426Z,101070.94
2019-02-21T10:52:04.275Z,101066.05
2019-02-21T10:54:12.260Z,101068.61
2019-02-21T10:56:20.194Z,101062.41
2019-02-21T10:58:27.952Z,101058.00
2019-02-21T11:00:35.807Z,101052.67
2019-02-21T11:02:43.788Z,101054.80
2019-02-21T11:04:55.087Z,101046.92
2019-02-21T11:07:01.904Z,101046.86
2019-02-21T11:09:14.853Z,101036.72
2019-02-21T11:11:22.610Z,101039.31
2019-02-21T11:13:30.427Z,101041.08
2019-02-21T11:15:38.202Z,101037.16
2019-02-21T11:17:45.952Z,101034.07
2019-02-21T11:19:53.739Z,101037.55
2019-02-21T11:22:01.562Z,101037.06
2019-02-21T11:24:09.503Z,101032.73
2019-02-21T11:26:17.544Z,101038.46
2019-02-21T11:28:25.240Z,101027.89
2019-02-21T11:30:33.106Z,101030.12
2019-02-21T11:32:40.891Z,101026.19
2019-02-21T11:34:48.604Z,101022.31
2019-02-21T11:36:56.280Z,101023.63
2019-02-21T11:39:05.395Z,101031.12
2019-02-21T11:41:13.335Z,101020.24
2019-02-21T11:43:21.198Z,101026.34
2019-02-21T11:45:28.847Z,101018.47
2019-02-21T11:47:36.693Z,101013.72
2019-02-21T11:49:44.348Z,101015.52
2019-02-21T11:51:52.107Z,101014.61
2019-02-21T11:54:00.035Z,101011.59
2019-02-21T11:56:07.861Z,101009.03
2019-02-21T11:58:15.473Z,101009.48
2019-02-21T12:00:25.514Z,100999.47
2019-02-21T12:02:38.867Z,101009.91
2019-02-21T12:04:42.583Z,101006.10
2019-02-21T12:06:50.378Z,100999.06
2019-02-21T12:08:58.234Z,101004.80
2019-02-21T12:11:06.000Z,101001.74
2019-02-21T12:13:13.776Z,101003.48
2019-02-21T12:15:21.582Z,100999.55
2019-02-21T12:17:29.438Z,100996.94
2019-02-21T12:19:37.259Z,100994.74
2019-02-21T12:21:44.986Z,100994.72
2019-02-21T12:23:52.709Z,100995.05
2019-02-21T12:26:00.493Z,100999.44
2019-02-21T12:28:08.415Z,100982.84
2019-02-21T12:30:18.628Z,100981.50
2019-02-21T12:32:26.290Z,100984.94
2019-02-21T12:34:34.109Z,100981.47
2019-02-21T12:36:41.642Z,100972.30
2019-02-21T12:38:49.323Z,100971.88
2019-02-21T12:40:57.058Z,100971.88
2019-02-21T12:43:04.858Z,100974.92
2019-02-21T12:45:15.806Z,100974.07
2019-02-21T12:47:24.279Z,100972.78
2019-02-21T12:49:32.709Z,100970.08
2019-02-21T12:51:40.542Z,100966.15
2019-02-21T12:53:48.676Z,100971.45
2019-02-21T12:55:56.603Z,100970.47
2019-02-21T12:58:04.522Z,100964.32
2019-02-21T13:00:16.059Z,100966.91
2019-02-21T13:02:23.910Z,100965.99
2019-02-21T13:04:33.463Z,100960.76
2019-02-21T13:06:41.486Z,100966.33
2019-02-21T13:08:49.374Z,100968.55
2019-02-21T13:10:57.347Z,100971.17
2019-02-21T13:13:05.058Z,100962.50
2019-02-21T13:15:14.198Z,100957.59
2019-02-21T13:17:22.333Z,100959.88
2019-02-21T13:19:30.115Z,100957.19
2019-02-21T13:21:38.043Z,100956.80
2019-02-21T13:23:45.817Z,100959.45
2019-02-21T13:25:53.615Z,100957.41
2019-02-21T13:28:01.511Z,100955.61
2019-02-21T13:30:12.657Z,100953.02
2019-02-21T13:32:20.433Z,100952.23
2019-02-21T13:34:28.206Z,100956.22
2019-02-21T13:36:36.186Z,100961.48
2019-02-21T13:38:43.883Z,100950.62
2019-02-21T13:40:51.774Z,100960.97
2019-02-21T13:42:59.695Z,100968.86
2019-02-21T13:45:08.400Z,100963.19
2019-02-21T13:47:16.279Z,100962.92
2019-02-21T13:49:24.152Z,100959.66
2019-02-21T13:51:32.146Z,100959.66
2019-02-21T13:53:39.982Z,100961.88
2019-02-21T13:55:47.755Z,100958.04
2019-02-21T13:57:55.609Z,100963.77
2019-02-21T14:00:03.433Z,100961.14
2019-02-21T14:02:11.200Z,100961.54
2019-02-21T14:04:19.214Z,100966.75
2019-02-21T14:06:27.468Z,100963.58
2019-02-21T14:08:35.411Z,100970.22
2019-02-21T14:10:43.067Z,100968.00
2019-02-21T14:12:51.114Z,100964.06
2019-02-21T14:14:58.873Z,100964.12
2019-02-21T14:17:06.698Z,100964.53
2019-02-21T14:19:14.639Z,100958.44
2019-02-21T14:21:22.495Z,100962.02
2019-02-21T14:23:30.502Z,100958.09
2019-02-21T14:25:41.096Z,100959.41
2019-02-21T14:27:47.795Z,100962.48
2019-02-21T14:29:55.565Z,100956.51
2019-02-21T14:32:03.338Z,100957.36
2019-02-21T14:34:11.068Z,100956.91
2019-02-21T14:36:19.368Z,100958.22
2019-02-21T14:38:28.425Z,100951.22
2019-02-21T14:40:36.561Z,100952.13
2019-02-21T14:42:44.315Z,100951.70
2019-02-21T14:44:52.237Z,100951.30
2019-02-21T14:47:00.095Z,100950.39
2019-02-21T14:49:08.166Z,100951.30
2019-02-21T14:51:16.218Z,100945.22
2019-02-21T14:53:24.264Z,100944.76
2019-02-21T14:55:32.014Z,100942.51
2019-02-21T14:57:41.204Z,100942.59
2019-02-21T14:59:49.195Z,100948.23
2019-02-21T15:01:57.643Z,100935.50
2019-02-21T15:04:08.674Z,100933.03
2019-02-21T15:06:26.831Z,100941.69
2019-02-21T15:08:27.738Z,100939.18
2019-02-21T15:10:35.724Z,100931.33
2019-02-21T15:12:43.887Z,100938.22
2019-02-21T15:14:51.902Z,100938.22
2019-02-21T15:16:59.773Z,100929.54
2019-02-21T15:19:07.854Z,100932.55
2019-02-21T15:21:15.749Z,100926.97
2019-02-21T15:23:23.626Z,100923.05
2019-02-21T15:25:31.557Z,100922.63
2019-02-21T15:27:39.897Z,100916.91
2019-02-21T15:29:47.854Z,100913.83
2019-02-21T15:31:55.704Z,100921.37
2019-02-21T15:34:03.562Z,100919.19
2019-02-21T15:36:11.856Z,100917.02
2019-02-21T15:38:20.445Z,100913.47
2019-02-21T15:40:28.387Z,100916.08
2019-02-21T15:42:35.932Z,100909.66
2019-02-21T15:44:43.944Z,100910.54
2019-02-21T15:46:52.003Z,100919.21
2019-02-21T15:49:02.098Z,100913.16
2019-02-21T15:51:10.532Z,100919.55
2019-02-21T15:53:18.287Z,100917.33
2019-02-21T15:55:26.029Z,100914.41
2019-02-21T15:57:34.155Z,100910.73
2019-02-21T15:59:42.181Z,100907.68
2019-02-21T16:01:50.179Z,100917.81
2019-02-21T16:03:58.440Z,100913.89
2019-02-21T16:06:06.191Z,100904.36
2019-02-21T16:08:15.220Z,100905.64
2019-02-21T16:10:23.673Z,100911.73
2019-02-21T16:12:31.689Z,100906.83
2019-02-21T16:14:39.637Z,100909.96
2019-02-21T16:16:47.480Z,100912.21
2019-02-21T16:18:55.261Z,100901.71
2019-02-21T16:21:03.305Z,100907.80
2019-02-21T16:23:11.568Z,100908.66
2019-02-21T16:25:21.245Z,100913.47
2019-02-21T16:27:29.116Z,100917.02
2019-02-21T16:29:36.879Z,100914.44
2019-02-21T16:31:44.572Z,100915.37
2019-02-21T16:33:52.444Z,100917.08
2019-02-21T16:36:00.830Z,100917.02
2019-02-21T16:38:08.731Z,100916.02
2019-02-21T16:40:17.005Z,100920.41
2019-02-21T16:42:24.937Z,100921.69
2019-02-21T16:44:32.943Z,100921.71
2019-02-21T16:46:41.017Z,100920.77
2019-02-21T16:48:48.700Z,100925.13
2019-02-21T16:50:59.295Z,100925.67
2019-02-21T16:53:07.460Z,100921.34
2019-02-21T16:55:20.104Z,100913.40
2019-02-21T16:57:28.568Z,100919.13
2019-02-21T16:59:36.661Z,100915.05
2019-02-21T17:01:44.704Z,100906.38
2019-02-21T17:03:52.524Z,100908.50
2019-02-21T17:06:00.712Z,100913.83
2019-02-21T17:08:08.731Z,100914.80
2019-02-21T17:10:16.747Z,100911.33
2019-02-21T17:12:24.571Z,100913.00
2019-02-21T17:14:32.429Z,100915.72
2019-02-21T17:16:40.743Z,100910.39
2019-02-21T17:18:48.895Z,100903.11
2019-02-21T17:20:56.864Z,100901.69
2019-02-21T17:23:04.648Z,100912.03
2019-02-21T17:25:13.613Z,100910.91
2019-02-21T17:27:21.406Z,100912.09
2019-02-21T17:29:29.336Z,100906.64
2019-02-21T17:31:37.394Z,100915.63
2019-02-21T17:33:45.010Z,100913.00
2019-02-21T17:35:52.790Z,100912.98
2019-02-21T17:38:00.709Z,100910.78
2019-02-21T17:40:10.705Z,100909.81
2019-02-21T17:42:18.583Z,100910.78
2019-02-21T17:44:26.313Z,100909.81
2019-02-21T17:46:34.046Z,100908.11
2019-02-21T17:48:42.191Z,100909.45
2019-02-21T17:50:49.835Z,100899.00
2019-02-21T17:52:58.079Z,100899.80
2019-02-21T17:55:06.278Z,100900.77
2019-02-21T17:57:14.138Z,100899.83
2019-02-21T17:59:22.126Z,100898.95
2019-02-21T18:01:30.258Z,100892.55
2019-02-21T18:03:38.048Z,100895.17
2019-02-21T18:05:45.841Z,100885.01
2019-02-21T18:07:53.988Z,100898.40
2019-02-21T18:10:01.856Z,100891.92
2019-02-21T18:12:09.787Z,100897.09
2019-02-21T18:14:17.349Z,100889.20
2019-02-21T18:16:25.441Z,100894.08
2019-02-21T18:18:33.279Z,100894.53
2019-02-21T18:20:41.137Z,100892.73
2019-02-21T18:22:48.852Z,100884.79
2019-02-21T18:24:56.473Z,100891.34
2019-02-21T18:27:04.295Z,100889.45
2019-02-21T18:29:12.292Z,100879.89
2019-02-21T18:31:20.460Z,100876.91
2019-02-21T18:33:27.978Z,100883.09
2019-02-21T18:35:35.682Z,100869.91
2019-02-21T18:37:47.364Z,100879.40
2019-02-21T18:39:54.961Z,100870.81
2019-02-21T18:42:03.596Z,100875.56
2019-02-21T18:44:12.233Z,100868.50
2019-02-21T18:46:20.405Z,100866.31
2019-02-21T18:48:28.155Z,100868.50
2019-02-21T18:50:38.533Z,100867.62
2019-02-21T18:52:45.385Z,100860.58
2019-02-21T18:54:53.967Z,100863.20
2019-02-21T18:57:02.404Z,100865.82
2019-02-21T18:59:10.648Z,100858.42
2019-02-21T19:01:19.272Z,100863.56
2019-02-21T19:03:27.640Z,100858.48
2019-02-21T19:05:36.519Z,100864.52
2019-02-21T19:07:44.579Z,100865.82
2019-02-21T19:09:52.648Z,100862.35
2019-02-21T19:12:00.498Z,100862.28
2019-02-21T19:14:08.402Z,100860.09
2019-02-21T19:16:16.157Z,100864.41
2019-02-21T19:18:24.395Z,100856.98
2019-02-21T19:20:32.873Z,100864.84
2019-02-21T19:22:41.294Z,100859.54
2019-02-21T19:24:49.839Z,100865.36
2019-02-21T19:26:57.679Z,100868.44
2019-02-21T19:29:05.844Z,100863.11
2019-02-21T19:31:17.883Z,100858.81
2019-02-21T19:33:25.867Z,100854.40
2019-02-21T19:35:34.054Z,100857.97
2019-02-21T19:37:42.171Z,100856.20
2019-02-21T19:39:50.503Z,100851.33
2019-02-21T19:41:59.861Z,100851.42
2019-02-21T19:44:09.283Z,100849.62
2019-02-21T19:46:17.581Z,100847.39
2019-02-21T19:48:25.464Z,100834.63
2019-02-21T19:50:33.546Z,100848.64
2019-02-21T19:52:41.628Z,100842.58
2019-02-21T19:54:49.886Z,100842.98
2019-02-21T19:56:57.914Z,100848.22
2019-02-21T19:59:05.789Z,100842.62
2019-02-21T20:01:13.993Z,100846.91
2019-02-21T20:03:21.986Z,100834.73
2019-02-21T20:05:30.212Z,100829.95
2019-02-21T20:07:38.258Z,100828.18
2019-02-21T20:09:46.212Z,100828.31
2019-02-21T20:11:54.171Z,100830.37
2019-02-21T20:14:02.337Z,100835.12
2019-02-21T20:16:10.264Z,100836.07
2019-02-21T20:18:18.334Z,100837.41
2019-02-21T20:20:27.882Z,100831.16
2019-02-21T20:22:36.243Z,100825.56
2019-02-21T20:24:44.304Z,100831.62
2019-02-21T20:26:52.332Z,100829.00
2019-02-21T20:29:00.623Z,100830.70
2019-02-21T20:31:08.648Z,100835.94
2019-02-21T20:33:18.024Z,100832.99
2019-02-21T20:35:25.735Z,100833.81
2019-02-21T20:37:38.276Z,100830.70
2019-02-21T20:39:46.272Z,100831.98
2019-02-21T20:41:54.263Z,100831.13
2019-02-21T20:44:03.387Z,100831.13
2019-02-21T20:46:11.326Z,100830.67
2019-02-21T20:48:19.137Z,100832.77
2019-02-21T20:50:28.376Z,100837.91
2019-02-21T20:52:36.254Z,100834.80
2019-02-21T20:54:44.328Z,100839.09
2019-02-21T20:56:52.175Z,100846.02
2019-02-21T20:59:00.191Z,100847.36
2019-02-21T21:01:08.315Z,100849.91
2019-02-21T21:03:16.548Z,100845.25
2019-02-21T21:05:24.395Z,100853.66
2019-02-21T21:07:33.289Z,100864.33
2019-02-21T21:09:41.551Z,100867.09
2019-02-21T21:11:49.369Z,100868.05
2019-02-21T21:13:57.060Z,100869.67
2019-02-21T21:16:05.086Z,100871.98
2019-02-21T21:18:13.046Z,100873.16
2019-02-21T21:20:21.030Z,100882.13
2019-02-21T21:22:28.804Z,100880.61
2019-02-21T21:24:36.498Z,100887.89
2019-02-21T21:26:44.444Z,100885.48
2019-02-21T21:28:53.580Z,100890.52
2019-02-21T21:31:01.576Z,100897.05
2019-02-21T21:33:09.424Z,100898.58
2019-02-21T21:35:17.301Z,100895.11
2019-02-21T21:37:25.298Z,100903.09
2019-02-21T21:39:33.387Z,100905.34
2019-02-21T21:41:41.286Z,100921.71
2019-02-21T21:43:50.767Z,100920.41
2019-02-21T21:45:58.892Z,100923.10
2019-02-21T21:48:09.774Z,100925.61
2019-02-21T21:50:18.802Z,100939.03
2019-02-21T21:52:26.788Z,100938.92
2019-02-21T21:54:35.078Z,100954.34
2019-02-21T21:56:43.309Z,100955.39
2019-02-21T21:58:51.030Z,100957.35
2019-02-21T22:01:00.952Z,100959.95
2019-02-21T22:03:08.909Z,100968.77
2019-02-21T22:05:16.842Z,100971.03
2019-02-21T22:07:24.664Z,100975.92
2019-02-21T22:09:33.148Z,100980.22
2019-02-21T22:11:40.918Z,100987.26
2019-02-21T22:13:48.697Z,100997.66
2019-02-21T22:15:56.831Z,101002.05
2019-02-21T22:18:04.887Z,101002.06
2019-02-21T22:20:13.451Z,101000.14
2019-02-21T22:22:21.183Z,101011.61
2019-02-21T22:24:28.959Z,101013.77
2019-02-21T22:26:37.195Z,101015.91
2019-02-21T22:28:45.591Z,101012.91
2019-02-21T22:30:53.366Z,101030.36
2019-02-21T22:33:01.169Z,101027.91
2019-02-21T22:35:09.070Z,101028.31
2019-02-21T22:37:17.184Z,101026.52
2019-02-21T22:39:24.940Z,101037.02
2019-02-21T22:41:32.645Z,101030.86
2019-02-21T22:43:40.433Z,101034.03
2019-02-21T22:45:48.385Z,101046.55
2019-02-21T22:47:55.988Z,101050.87
2019-02-21T22:50:06.201Z,101053.98
2019-02-21T22:52:14.061Z,101061.80
2019-02-21T22:54:21.982Z,101058.34
2019-02-21T22:56:29.911Z,101057.25
2019-02-21T22:58:44.799Z,101054.62
2019-02-21T23:01:28.968Z,101065.22
2019-02-21T23:04:14.323Z,101068.75
2019-02-21T23:07:18.891Z,101075.69
2019-02-21T23:09:28.216Z,101078.28
2019-02-21T23:11:36.247Z,101085.60
2019-02-21T23:13:44.506Z,101088.16
2019-02-21T23:15:52.231Z,101099.45
2019-02-21T23:18:00.029Z,101095.17
2019-02-21T23:20:09.694Z,101089.44
2019-02-21T23:22:17.659Z,101096.27
2019-02-21T23:24:25.581Z,101098.14
2019-02-21T23:26:33.272Z,101107.13
2019-02-21T23:28:40.912Z,101111.97
2019-02-21T23:30:48.783Z,101114.05
2019-02-21T23:32:56.434Z,101123.09
2019-02-21T23:35:04.236Z,101121.37
2019-02-21T23:37:12.064Z,101134.52
2019-02-21T23:39:19.870Z,101138.44
2019-02-21T23:41:27.501Z,101148.88
2019-02-21T23:43:35.285Z,101160.13
2019-02-21T23:45:43.136Z,101164.47
2019-02-21T23:47:51.089Z,101166.16
2019-02-21T23:49:58.910Z,101172.23
2019-02-21T23:52:06.847Z,101177.44
2019-02-21T23:54:14.578Z,101178.72
2019-02-21T23:56:22.537Z,101180.90
2019-02-21T23:58:30.348Z,101183.08
